Bridgeport, CT (06607)

1:18 AM EDT on May 06, 2015 (GMT -0400)
Brewer Stratford Marina | | Change Station
CLOSE
Current Station
Personal Weather Station
Location: Stratford, CT
Elevation: 20 ft
Nearby Weather Stations

Elev 20 ft 41.18 °N, 73.13 °W | Updated 3 seconds ago

Clear
Clear
57.0 °F
Feels Like 57.0 °F
N
0.0
Wind Variable Wind from SSE
Gusts 0.0 mph

Today
High -- | Low -- °F
--% Chance of Precip.
Yesterday
High -- | Low -- °F
Precip. -- in
5:44 AM 7:54 PM
Waning Gibbous, 96% visible
Pressure 30.20 in
Visibility 9.0 miles
Clouds Clear
Dew Point 52 °F
Humidity 82%
Rainfall 0.00 in
Snow Depth Not available.
UV 0 out of 12
Pollen 9.00 out of 12
Air Quality Not available.
Flu Activity Widespread
METAR KBDR 060452Z AUTO 13005KT 9SM CLR 16/12 A3020 RMK AO2 SLP225 T01560117 402610133

More Conditions Fewer Conditions

Pressure 30.20 in
Visibility 9.0 miles
Clouds Clear
Dew Point 52 °F
Humidity 82%
Rainfall 0.00 in
Snow Depth Not available.
UV 0 out of 12
Pollen 9.00 out of 12
Air Quality Not available.
Flu Activity Widespread
METAR KBDR 060452Z AUTO 13005KT 9SM CLR 16/12 A3020 RMK AO2 SLP225 T01560117 402610133

More Conditions Fewer Conditions

10-Day Weather Forecast

Almanac

Astronomy

May. 06, 2015 Rise Set
Actual Time
Civil Twilight
Nautical Twilight
Astronomical Twilight
Moon
Length of Visible Light
Length of Day
Tomorrow will be .
, % of the Moon is Illuminated

Today's Extremes

State Highs State Lows

Community

WunderPhotos

Upload Photos

1,818,838 photos uploaded!

WunderBlogs® & News

Nearby

Air Quality

  Air Quality AQ Index Pollutant
Not available.

Snow Depth

Station Depth Elevation

Earthquake Activity

City Distance Mag. Time & Date
Minimum magnitude displayed is 2.5.

Coastal Water Temperatures

Place Temperature

Stations

Nearby Weather Stations

Station Location Temp. Windchill Dew Point Humidity Wind Precip. Elev Updated Type